Time;durP1;ratioP1;P1;durP2;ratioP2;P2;SDS_P1;SDS_P2;PMS_P1;PMS_P2;Temp;Humidity;BMP_temperature;BMP_pressure;BME280_temperature;BME280_humidity;BME280_pressure;Samples;Min_cycle;Max_cycle;Signal;HPM_P1;HPM_P2
2021/07/17 00:01:16;;;;;;;;;;;18.30;96.20;;;;;;4421640;32;45096;-83
2021/07/17 00:03:54;;;;;;;;;;;18.30;96.20;;;;;;4419736;32;44216;-83
2021/07/17 00:06:33;;;;;;;;;;;18.30;96.20;;;;;;4419982;32;44217;-83
2021/07/17 00:09:11;;;;;;;;;;;18.30;96.20;;;;;;4419654;32;43554;-84
2021/07/17 00:11:50;;;;;;;;;;;18.30;96.20;;;;;;4419849;32;42739;-83
2021/07/17 00:14:28;;;;;;;;;;;18.30;96.20;;;;;;4421074;32;44239;-83
2021/07/17 00:17:03;;;;;;;;;;;18.30;96.20;;;;;;4420048;32;45034;-83
2021/07/17 00:19:41;;;;;;;;;;;18.30;96.20;;;;;;4421091;32;42609;-83
2021/07/17 00:22:20;;;;;;;;;;;18.30;96.20;;;;;;4420943;32;20055;-83
2021/07/17 00:24:58;;;;;;;;;;;18.30;96.20;;;;;;4420127;32;41342;-83
2021/07/17 00:27:36;;;;;;;;;;;18.30;96.20;;;;;;4419973;32;43960;-84
2021/07/17 00:30:04;;;;;;;;;;;18.30;96.20;;;;;;4419881;32;43369;-84
2021/07/17 00:32:43;;;;;;;;;;;18.30;96.20;;;;;;4419576;32;43083;-83
2021/07/17 00:35:21;;;;;;;;;;;18.30;96.20;;;;;;4420434;32;44357;-83
2021/07/17 00:38:00;;;;;;;;;;;18.30;96.20;;;;;;4419324;32;44901;-83
2021/07/17 00:40:35;;;;;;;;;;;18.30;96.30;;;;;;4419736;32;43351;-84
2021/07/17 00:43:11;;;;;;;;;;;18.30;96.20;;;;;;4419726;32;45137;-83
2021/07/17 00:45:52;;;;;;;;;;;18.30;96.30;;;;;;4419319;32;42498;-83
2021/07/17 00:48:31;;;;;;;;;;;18.20;96.20;;;;;;4419102;32;43080;-83
2021/07/17 00:51:10;;;;;;;;;;;18.30;96.30;;;;;;4419686;32;44190;-83
2021/07/17 00:53:48;;;;;;;;;;;18.30;96.30;;;;;;4420625;32;43950;-83
2021/07/17 00:56:24;;;;;;;;;;;18.30;96.30;;;;;;4419657;32;43710;-84
2021/07/17 00:58:58;;;;;;;;;;;18.30;96.30;;;;;;4419576;32;43281;-83
2021/07/17 01:01:34;;;;;;;;;;;18.20;96.30;;;;;;4420492;32;45556;-83
2021/07/17 01:04:13;;;;;;;;;;;18.20;96.20;;;;;;4420328;32;43177;-83
2021/07/17 01:06:51;;;;;;;;;;;18.20;96.20;;;;;;4420483;32;44208;-84
2021/07/17 01:09:30;;;;;;;;;;;18.20;96.20;;;;;;4419413;32;45551;-83
2021/07/17 01:12:05;;;;;;;;;;;18.20;96.20;;;;;;4419351;32;44051;-83
2021/07/17 01:14:47;;;;;;;;;;;18.20;96.20;;;;;;4420428;32;43287;-84
2021/07/17 01:17:25;;;;;;;;;;;18.20;96.20;;;;;;4419157;32;45565;-83
2021/07/17 01:20:01;;;;;;;;;;;18.30;96.20;;;;;;4419469;32;43176;-84
2021/07/17 01:22:36;;;;;;;;;;;18.20;96.20;;;;;;4419777;32;44166;-84
2021/07/17 01:25:06;;;;;;;;;;;18.20;96.20;;;;;;4419458;32;43556;-84
2021/07/17 01:27:41;;;;;;;;;;;18.20;96.20;;;;;;4419869;32;43286;-83
2021/07/17 01:30:25;;;;;;;;;;;18.30;96.30;;;;;;4420366;32;43891;-83
2021/07/17 01:33:03;;;;;;;;;;;18.20;96.20;;;;;;4419423;32;43058;-84
2021/07/17 01:35:43;;;;;;;;;;;18.20;96.20;;;;;;4419073;32;44156;-84
2021/07/17 01:38:21;;;;;;;;;;;18.20;96.20;;;;;;4419104;32;44147;-84
2021/07/17 01:41:01;;;;;;;;;;;18.20;96.20;;;;;;4419062;32;44237;-84
2021/07/17 01:43:39;;;;;;;;;;;18.20;96.20;;;;;;4419062;32;43848;-83
2021/07/17 01:46:18;;;;;;;;;;;18.20;96.20;;;;;;4419366;32;43136;-84
2021/07/17 01:49:08;;;;;;;;;;;18.20;96.20;;;;;;4423264;32;42206;-83
2021/07/17 01:51:48;;;;;;;;;;;18.20;96.20;;;;;;4422188;32;43474;-84
2021/07/17 01:54:23;;;;;;;;;;;18.20;96.20;;;;;;4422214;32;43910;-84
2021/07/17 01:56:50;;;;;;;;;;;18.20;96.20;;;;;;4423253;32;44659;-84
2021/07/17 01:59:28;;;;;;;;;;;18.20;96.20;;;;;;4421920;32;44223;-83
2021/07/17 02:02:07;;;;;;;;;;;18.20;96.20;;;;;;4423118;32;42764;-83
2021/07/17 02:04:46;;;;;;;;;;;18.10;96.10;;;;;;4421753;32;42777;-83
2021/07/17 02:07:24;;;;;;;;;;;18.10;96.10;;;;;;4422980;32;45169;-83
2021/07/17 02:10:02;;;;;;;;;;;18.20;96.10;;;;;;4423146;32;43600;-83
2021/07/17 02:12:42;;;;;;;;;;;18.20;96.10;;;;;;4421637;32;43729;-83
2021/07/17 02:15:20;;;;;;;;;;;18.10;96.10;;;;;;4421801;32;42109;-83
2021/07/17 02:17:59;;;;;;;;;;;18.20;96.10;;;;;;4423072;32;43358;-83
2021/07/17 02:20:37;;;;;;;;;;;18.20;96.10;;;;;;4421463;32;44008;-83
2021/07/17 02:23:15;;;;;;;;;;;18.10;96.10;;;;;;4421291;32;43874;-84
2021/07/17 02:25:43;;;;;;;;;;;18.20;96.10;;;;;;4422021;32;43937;-84
2021/07/17 02:28:21;;;;;;;;;;;18.20;96.10;;;;;;4421156;32;43738;-83
2021/07/17 02:30:59;;;;;;;;;;;18.10;96.10;;;;;;4421270;32;43412;-83
2021/07/17 02:33:38;;;;;;;;;;;18.10;96.00;;;;;;4421150;32;44403;-83
2021/07/17 02:36:16;;;;;;;;;;;18.10;96.00;;;;;;4421183;32;42799;-83
2021/07/17 02:38:56;;;;;;;;;;;18.10;96.00;;;;;;4422653;32;45761;-83
2021/07/17 02:41:34;;;;;;;;;;;18.10;96.00;;;;;;4422663;32;44386;-82
2021/07/17 02:44:13;;;;;;;;;;;18.10;96.10;;;;;;4422784;32;43461;-83
2021/07/17 02:46:51;;;;;;;;;;;18.10;96.00;;;;;;4421258;32;44504;-83
2021/07/17 02:49:26;;;;;;;;;;;18.10;96.00;;;;;;4422049;32;43503;-84
2021/07/17 02:52:04;;;;;;;;;;;18.10;96.00;;;;;;4422590;32;45717;-84
2021/07/17 02:54:42;;;;;;;;;;;18.10;96.00;;;;;;4421409;32;43265;-84
2021/07/17 02:57:10;;;;;;;;;;;18.10;96.00;;;;;;4421238;32;43283;-85
2021/07/17 02:59:49;;;;;;;;;;;18.10;96.00;;;;;;4421078;32;42815;-84
2021/07/17 03:02:28;;;;;;;;;;;18.00;96.00;;;;;;4421070;32;44124;-84
2021/07/17 03:05:06;;;;;;;;;;;18.00;96.00;;;;;;4420995;32;42057;-84
2021/07/17 03:07:44;;;;;;;;;;;18.10;96.00;;;;;;4421862;32;43494;-83
2021/07/17 03:10:23;;;;;;;;;;;18.00;96.00;;;;;;4421058;32;43794;-83
2021/07/17 03:13:01;;;;;;;;;;;18.00;96.00;;;;;;4421069;32;43425;-86
2021/07/17 03:15:41;;;;;;;;;;;18.10;96.00;;;;;;4421085;32;44520;-84
2021/07/17 03:18:19;;;;;;;;;;;18.00;96.00;;;;;;4420698;32;44579;-84
2021/07/17 03:20:58;;;;;;;;;;;18.00;96.00;;;;;;4421893;32;44297;-84
2021/07/17 03:23:36;;;;;;;;;;;18.00;96.00;;;;;;4420899;32;44244;-85
2021/07/17 03:26:14;;;;;;;;;;;18.00;96.00;;;;;;4420969;32;43984;-85
2021/07/17 03:28:42;;;;;;;;;;;18.00;96.00;;;;;;4422140;32;43326;-84
2021/07/17 03:31:21;;;;;;;;;;;18.00;96.00;;;;;;4420266;32;45753;-83
2021/07/17 03:33:59;;;;;;;;;;;18.00;96.00;;;;;;4420252;32;44799;-84
2021/07/17 03:36:37;;;;;;;;;;;18.00;96.00;;;;;;4421381;32;43311;-84
2021/07/17 03:39:15;;;;;;;;;;;18.00;96.00;;;;;;4420445;32;42714;-84
2021/07/17 03:41:54;;;;;;;;;;;18.00;96.00;;;;;;4421567;32;42545;-83
2021/07/17 03:44:33;;;;;;;;;;;18.00;96.00;;;;;;4420451;32;44977;-84
2021/07/17 03:47:11;;;;;;;;;;;18.00;96.00;;;;;;4420548;32;43898;-84
2021/07/17 03:49:50;;;;;;;;;;;18.00;96.00;;;;;;4420375;32;44986;-84
2021/07/17 03:52:28;;;;;;;;;;;18.00;96.00;;;;;;4420434;32;43297;-84
2021/07/17 03:55:07;;;;;;;;;;;18.00;96.00;;;;;;4421465;32;44282;-84
2021/07/17 03:57:34;;;;;;;;;;;18.00;96.00;;;;;;4421798;32;43366;-84
2021/07/17 04:00:12;;;;;;;;;;;18.00;96.00;;;;;;4421237;32;43971;-84
2021/07/17 04:02:51;;;;;;;;;;;18.00;96.00;;;;;;4419986;32;44230;-83
2021/07/17 04:05:30;;;;;;;;;;;18.00;96.00;;;;;;4421106;32;41835;-84
2021/07/17 04:08:07;;;;;;;;;;;18.00;96.00;;;;;;4421207;32;42740;-84
2021/07/17 04:10:46;;;;;;;;;;;18.00;96.00;;;;;;4419449;32;42898;-83
2021/07/17 04:13:24;;;;;;;;;;;18.00;96.00;;;;;;4421096;32;43408;-84
2021/07/17 04:16:03;;;;;;;;;;;18.00;96.00;;;;;;4420043;32;42724;-84
2021/07/17 04:18:42;;;;;;;;;;;17.90;95.90;;;;;;4420025;32;45141;-84
2021/07/17 04:21:20;;;;;;;;;;;17.90;95.90;;;;;;4419959;32;43723;-84
2021/07/17 04:23:57;;;;;;;;;;;18.00;95.90;;;;;;4419766;32;43383;-84
2021/07/17 04:26:35;;;;;;;;;;;17.90;95.90;;;;;;4419836;32;44356;-84
2021/07/17 04:29:03;;;;;;;;;;;18.00;96.00;;;;;;4421211;32;44179;-84
2021/07/17 04:31:41;;;;;;;;;;;17.90;95.90;;;;;;4420558;32;44112;-83
2021/07/17 04:34:20;;;;;;;;;;;17.90;95.90;;;;;;4419924;32;44648;-83
2021/07/17 04:36:59;;;;;;;;;;;17.90;96.00;;;;;;4419819;32;44567;-84
2021/07/17 04:39:37;;;;;;;;;;;17.90;96.00;;;;;;4420893;32;43913;-83
2021/07/17 04:42:12;;;;;;;;;;;17.90;96.00;;;;;;4419539;32;43290;-84
2021/07/17 04:44:53;;;;;;;;;;;17.90;96.00;;;;;;4420834;32;45575;-84
2021/07/17 04:47:32;;;;;;;;;;;17.90;96.00;;;;;;4419787;32;44770;-84
2021/07/17 04:50:07;;;;;;;;;;;17.90;96.00;;;;;;4419715;32;45102;-84
2021/07/17 04:52:46;;;;;;;;;;;17.90;95.90;;;;;;4420816;32;44664;-84
2021/07/17 04:55:24;;;;;;;;;;;17.90;96.00;;;;;;4420740;32;43959;-84
2021/07/17 04:58:00;;;;;;;;;;;17.90;96.00;;;;;;4419344;32;43477;-85
2021/07/17 05:00:36;;;;;;;;;;;17.90;96.00;;;;;;4420448;32;43451;-84
2021/07/17 05:03:12;;;;;;;;;;;17.90;96.00;;;;;;4419019;32;42775;-84
2021/07/17 05:05:50;;;;;;;;;;;17.90;96.00;;;;;;4420309;32;20000;-84
2021/07/17 05:08:29;;;;;;;;;;;17.90;96.00;;;;;;4419024;32;42650;-84
2021/07/17 05:11:07;;;;;;;;;;;17.90;96.00;;;;;;4419395;32;44596;-84
2021/07/17 05:13:46;;;;;;;;;;;17.90;96.00;;;;;;4419418;32;44866;-84
2021/07/17 05:16:25;;;;;;;;;;;17.90;96.00;;;;;;4419352;32;44749;-84
2021/07/17 05:19:03;;;;;;;;;;;17.90;96.00;;;;;;4419108;32;43811;-84
2021/07/17 05:21:41;;;;;;;;;;;17.90;96.00;;;;;;4420420;32;45799;-83
2021/07/17 05:24:20;;;;;;;;;;;17.90;96.00;;;;;;4419276;32;44331;-84
2021/07/17 05:26:58;;;;;;;;;;;17.90;96.10;;;;;;4419179;32;44594;-85
2021/07/17 05:29:28;;;;;;;;;;;17.90;96.00;;;;;;4419396;32;42986;-85
2021/07/17 05:32:07;;;;;;;;;;;17.90;96.10;;;;;;4419209;32;44310;-84
2021/07/17 05:34:46;;;;;;;;;;;17.90;96.10;;;;;;4419163;32;44338;-83
2021/07/17 05:37:24;;;;;;;;;;;17.90;96.10;;;;;;4419767;32;20029;-84
2021/07/17 05:40:03;;;;;;;;;;;17.90;96.10;;;;;;4420242;32;43305;-84
2021/07/17 05:42:41;;;;;;;;;;;17.90;96.10;;;;;;4419130;32;43008;-84
2021/07/17 05:45:19;;;;;;;;;;;17.90;96.10;;;;;;4420194;32;43392;-84
2021/07/17 05:47:58;;;;;;;;;;;17.90;96.10;;;;;;4419083;32;42083;-84
2021/07/17 05:50:37;;;;;;;;;;;17.90;96.10;;;;;;4419168;32;43323;-84
2021/07/17 05:53:16;;;;;;;;;;;17.90;96.10;;;;;;4419081;32;43340;-84
2021/07/17 05:55:54;;;;;;;;;;;17.90;96.10;;;;;;4419126;32;44244;-84
2021/07/17 05:58:24;;;;;;;;;;;17.90;96.10;;;;;;4420235;32;44099;-84
2021/07/17 06:01:00;;;;;;;;;;;17.90;96.20;;;;;;4419664;32;44179;-84
2021/07/17 06:03:38;;;;;;;;;;;17.90;96.20;;;;;;4419840;32;45305;-84
2021/07/17 06:06:17;;;;;;;;;;;17.90;96.20;;;;;;4418922;32;43335;-84
2021/07/17 06:08:56;;;;;;;;;;;17.90;96.20;;;;;;4419951;32;20000;-84
2021/07/17 06:11:38;;;;;;;;;;;17.90;96.20;;;;;;4420078;32;44391;-84
2021/07/17 06:14:18;;;;;;;;;;;17.90;96.20;;;;;;4419631;32;42696;-84
2021/07/17 06:16:56;;;;;;;;;;;17.90;96.20;;;;;;4418962;32;43474;-84
2021/07/17 06:19:34;;;;;;;;;;;17.90;96.20;;;;;;4420200;32;44055;-84
2021/07/17 06:22:13;;;;;;;;;;;17.90;96.30;;;;;;4420031;32;44394;-84
2021/07/17 06:24:51;;;;;;;;;;;17.90;96.30;;;;;;4419048;32;44654;-83
2021/07/17 06:27:18;;;;;;;;;;;17.90;96.30;;;;;;4419517;32;43597;-85
2021/07/17 06:29:53;;;;;;;;;;;17.90;96.30;;;;;;4418493;32;42230;-84
2021/07/17 06:32:32;;;;;;;;;;;17.90;96.30;;;;;;4419234;32;45268;-83
2021/07/17 06:35:10;;;;;;;;;;;17.90;96.30;;;;;;4421643;32;43895;-84
2021/07/17 06:37:49;;;;;;;;;;;17.90;96.30;;;;;;4421643;32;43855;-84
2021/07/17 06:40:27;;;;;;;;;;;17.90;96.30;;;;;;4422293;32;20025;-84
2021/07/17 06:43:06;;;;;;;;;;;17.90;96.30;;;;;;4421631;32;43367;-83
2021/07/17 06:45:44;;;;;;;;;;;17.90;96.30;;;;;;4422112;32;43483;-83
2021/07/17 06:48:19;;;;;;;;;;;17.90;96.30;;;;;;4421302;32;43835;-84
2021/07/17 06:50:57;;;;;;;;;;;17.90;96.40;;;;;;4421510;32;45468;-84
2021/07/17 06:53:42;;;;;;;;;;;17.90;96.30;;;;;;4421329;32;45454;-84
2021/07/17 06:56:20;;;;;;;;;;;17.90;96.30;;;;;;4421296;32;43239;-84
2021/07/17 06:58:47;;;;;;;;;;;17.90;96.30;;;;;;4421226;32;44350;-84
2021/07/17 07:01:20;;;;;;;;;;;17.90;96.30;;;;;;4422412;32;46105;-84
2021/07/17 07:03:59;;;;;;;;;;;17.90;96.30;;;;;;4421843;32;44214;-84
2021/07/17 07:06:35;;;;;;;;;;;17.90;96.30;;;;;;4421773;32;42662;-84
2021/07/17 07:09:14;;;;;;;;;;;17.90;96.30;;;;;;4420989;32;44117;-84
2021/07/17 07:11:53;;;;;;;;;;;17.90;96.30;;;;;;4422259;32;20070;-84
2021/07/17 07:14:29;;;;;;;;;;;17.90;96.30;;;;;;4422296;32;44198;-83
2021/07/17 07:17:07;;;;;;;;;;;17.90;96.30;;;;;;4421084;32;43913;-83
2021/07/17 07:19:46;;;;;;;;;;;17.90;96.30;;;;;;4422027;32;44874;-85
2021/07/17 07:22:24;;;;;;;;;;;17.90;96.30;;;;;;4422111;32;43312;-84
2021/07/17 07:25:02;;;;;;;;;;;17.90;96.30;;;;;;4422294;32;44286;-85
2021/07/17 07:27:32;;;;;;;;;;;17.90;96.30;;;;;;4420535;32;44124;-85
2021/07/17 07:30:11;;;;;;;;;;;17.90;96.30;;;;;;4420755;32;44706;-84
2021/07/17 07:32:54;;;;;;;;;;;17.90;96.20;;;;;;4421912;32;45033;-83
2021/07/17 07:35:36;;;;;;;;;;;17.90;96.20;;;;;;4420737;32;43599;-84
2021/07/17 07:38:14;;;;;;;;;;;18.00;96.30;;;;;;4421806;32;45556;-84
2021/07/17 07:40:56;;;;;;;;;;;17.90;96.20;;;;;;4420430;32;43329;-83
2021/07/17 07:43:37;;;;;;;;;;;18.00;96.30;;;;;;4421782;32;19991;-84
2021/07/17 07:46:16;;;;;;;;;;;17.90;96.20;;;;;;4420364;32;45833;-84
2021/07/17 07:48:54;;;;;;;;;;;18.00;96.20;;;;;;4421652;32;43253;-84
2021/07/17 07:51:33;;;;;;;;;;;18.00;96.20;;;;;;4420426;32;43607;-84
2021/07/17 07:54:11;;;;;;;;;;;18.00;96.20;;;;;;4420444;32;43220;-84
2021/07/17 07:56:49;;;;;;;;;;;18.00;96.20;;;;;;4419980;32;45067;-83
2021/07/17 07:59:28;;;;;;;;;;;18.00;96.20;;;;;;4421219;32;44114;-84
2021/07/17 08:01:55;;;;;;;;;;;18.00;96.20;;;;;;4420650;32;43885;-85
2021/07/17 08:04:32;;;;;;;;;;;18.00;96.20;;;;;;4419940;32;43476;-83
2021/07/17 08:07:10;;;;;;;;;;;18.00;96.20;;;;;;4421249;32;43814;-83
2021/07/17 08:09:45;;;;;;;;;;;18.00;96.20;;;;;;4420118;32;43728;-84
2021/07/17 08:12:28;;;;;;;;;;;18.00;96.20;;;;;;4420777;32;44182;-84
2021/07/17 08:15:07;;;;;;;;;;;18.00;96.20;;;;;;4420896;32;20026;-84
2021/07/17 08:17:49;;;;;;;;;;;18.00;96.20;;;;;;4420128;32;43182;-84
2021/07/17 08:20:27;;;;;;;;;;;18.00;96.20;;;;;;4420040;32;43968;-84
2021/07/17 08:23:05;;;;;;;;;;;18.00;96.20;;;;;;4421191;32;44772;-83
2021/07/17 08:25:43;;;;;;;;;;;18.00;96.20;;;;;;4419942;32;45047;-84
2021/07/17 08:28:22;;;;;;;;;;;18.00;96.20;;;;;;4419554;32;42948;-83
2021/07/17 08:31:01;;;;;;;;;;;18.00;96.20;;;;;;4419752;32;42754;-84
2021/07/17 08:33:39;;;;;;;;;;;18.00;96.20;;;;;;4419652;32;42490;-84
2021/07/17 08:36:07;;;;;;;;;;;18.00;96.10;;;;;;4420524;32;44183;-84
2021/07/17 08:38:43;;;;;;;;;;;18.10;96.20;;;;;;4420078;32;43868;-83
2021/07/17 08:41:26;;;;;;;;;;;18.10;96.20;;;;;;4419695;32;44210;-85
2021/07/17 08:44:05;;;;;;;;;;;18.00;96.20;;;;;;4419738;32;45373;-84
2021/07/17 08:46:49;;;;;;;;;;;18.00;96.10;;;;;;4420632;32;20113;-83
2021/07/17 08:49:31;;;;;;;;;;;18.00;96.10;;;;;;4420610;32;43640;-84
2021/07/17 08:52:07;;;;;;;;;;;18.10;96.20;;;;;;4419624;32;43918;-83
2021/07/17 08:54:46;;;;;;;;;;;18.10;96.20;;;;;;4419756;32;43264;-84
2021/07/17 08:57:25;;;;;;;;;;;18.10;96.20;;;;;;4419512;32;45093;-83
2021/07/17 09:00:03;;;;;;;;;;;18.10;96.20;;;;;;4419554;32;44731;-83
2021/07/17 09:02:43;;;;;;;;;;;18.10;96.20;;;;;;4419518;32;44183;-84
2021/07/17 09:05:22;;;;;;;;;;;18.10;96.20;;;;;;4420668;32;42668;-84
2021/07/17 09:08:01;;;;;;;;;;;18.10;96.20;;;;;;4419693;32;43303;-84
2021/07/17 09:10:37;;;;;;;;;;;18.10;96.20;;;;;;4420609;32;43957;-84
2021/07/17 09:13:24;;;;;;;;;;;18.10;96.20;;;;;;4420409;32;45165;-83
2021/07/17 09:16:12;;;;;;;;;;;18.10;96.20;;;;;;4419165;32;44494;-83
2021/07/17 09:18:51;;;;;;;;;;;18.10;96.20;;;;;;4419553;32;44146;-83
2021/07/17 09:21:33;;;;;;;;;;;18.20;96.20;;;;;;4420368;32;45003;-83
2021/07/17 09:24:17;;;;;;;;;;;18.20;96.20;;;;;;4419066;32;45198;-83
2021/07/17 09:27:00;;;;;;;;;;;18.20;96.20;;;;;;4419311;32;44730;-83
2021/07/17 09:29:42;;;;;;;;;;;18.20;96.20;;;;;;4419115;32;44884;-83
2021/07/17 09:32:21;;;;;;;;;;;18.20;96.20;;;;;;4419281;32;43262;-85
2021/07/17 09:34:59;;;;;;;;;;;18.20;96.20;;;;;;4419247;32;44933;-83
2021/07/17 09:37:37;;;;;;;;;;;18.20;96.20;;;;;;4419121;32;44074;-83
2021/07/17 09:40:16;;;;;;;;;;;18.30;96.20;;;;;;4419416;32;44868;-82
2021/07/17 09:42:54;;;;;;;;;;;18.30;96.20;;;;;;4419416;32;43473;-83
2021/07/17 09:45:32;;;;;;;;;;;18.30;96.20;;;;;;4419435;32;44895;-83
2021/07/17 09:48:22;;;;;;;;;;;18.30;96.20;;;;;;4419050;32;43925;-83
2021/07/17 09:51:01;;;;;;;;;;;18.30;96.20;;;;;;4419195;32;44974;-83
2021/07/17 09:53:54;;;;;;;;;;;18.30;96.20;;;;;;4419097;32;43662;-83
2021/07/17 09:56:34;;;;;;;;;;;18.40;96.30;;;;;;4418554;32;43137;-84
2021/07/17 09:59:13;;;;;;;;;;;18.40;96.20;;;;;;4419257;32;43482;-83
2021/07/17 10:01:47;;;;;;;;;;;18.40;96.30;;;;;;4419070;32;45016;-83
2021/07/17 10:04:30;;;;;;;;;;;18.50;96.30;;;;;;4418585;32;44281;-83
2021/07/17 10:07:13;;;;;;;;;;;18.50;96.20;;;;;;4419934;32;43135;-83
2021/07/17 10:09:54;;;;;;;;;;;18.50;96.20;;;;;;4421758;32;44145;-83
2021/07/17 10:12:59;;;;;;;;;;;18.50;96.20;;;;;;4423194;32;43152;-83
2021/07/17 10:15:44;;;;;;;;;;;18.50;96.20;;;;;;4412234;32;43855;-83
2021/07/17 10:18:25;;;;;;;;;;;18.50;96.20;;;;;;4421824;32;44153;-83
2021/07/17 10:21:04;;;;;;;;;;;18.50;96.20;;;;;;4423926;32;20028;-83
2021/07/17 10:23:31;;;;;;;;;;;18.50;96.20;;;;;;4421930;32;43778;-84
2021/07/17 10:26:10;;;;;;;;;;;18.50;96.20;;;;;;4421284;32;42858;-83
2021/07/17 10:28:49;;;;;;;;;;;18.60;96.20;;;;;;4422533;32;43478;-82
2021/07/17 10:31:33;;;;;;;;;;;18.60;96.20;;;;;;4421554;32;42337;-83
2021/07/17 10:34:12;;;;;;;;;;;18.60;96.20;;;;;;4420784;32;44204;-83
2021/07/17 10:36:55;;;;;;;;;;;18.60;96.20;;;;;;4421641;32;45542;-82
2021/07/17 10:39:31;;;;;;;;;;;18.60;96.20;;;;;;4422815;32;44194;-82
2021/07/17 10:42:12;;;;;;;;;;;18.70;96.20;;;;;;4421578;32;45484;-82
2021/07/17 10:44:51;;;;;;;;;;;18.70;96.20;;;;;;4421419;32;44134;-83
2021/07/17 10:47:40;;;;;;;;;;;18.70;96.20;;;;;;4421578;32;45298;-83
2021/07/17 10:50:28;;;;;;;;;;;18.70;96.20;;;;;;4421490;32;43355;-82
2021/07/17 10:52:55;;;;;;;;;;;18.80;96.20;;;;;;4421170;32;43886;-82
2021/07/17 10:55:37;;;;;;;;;;;18.80;96.20;;;;;;4420926;32;44274;-82
2021/07/17 10:58:28;;;;;;;;;;;18.80;96.20;;;;;;4420965;32;44187;-82
2021/07/17 11:01:09;;;;;;;;;;;18.80;96.10;;;;;;4420864;32;45066;-82
2021/07/17 11:03:57;;;;;;;;;;;18.80;96.10;;;;;;4420960;32;43441;-83
2021/07/17 11:06:35;;;;;;;;;;;18.90;96.20;;;;;;4420915;32;45250;-82
2021/07/17 11:09:29;;;;;;;;;;;18.90;96.20;;;;;;4421172;32;43436;-83
2021/07/17 11:12:16;;;;;;;;;;;18.90;96.20;;;;;;4422046;32;46162;-83
2021/07/17 11:14:51;;;;;;;;;;;18.90;96.20;;;;;;4421514;32;44300;-82
2021/07/17 11:17:37;;;;;;;;;;;18.90;96.20;;;;;;4421047;32;44453;-82
2021/07/17 11:20:25;;;;;;;;;;;18.90;96.10;;;;;;4420533;32;44542;-83
2021/07/17 11:23:14;;;;;;;;;;;19.00;96.20;;;;;;4421885;32;20029;-83
2021/07/17 11:26:19;;;;;;;;;;;19.00;96.20;;;;;;4420472;32;42630;-82
2021/07/17 11:28:55;;;;;;;;;;;19.10;96.20;;;;;;4412908;32;44163;-82
2021/07/17 11:31:44;;;;;;;;;;;19.10;96.10;;;;;;4420824;32;44102;-83
2021/07/17 11:34:35;;;;;;;;;;;19.10;96.20;;;;;;4421031;32;44226;-82
2021/07/17 11:37:14;;;;;;;;;;;19.10;96.10;;;;;;4420296;32;43296;-83
2021/07/17 11:39:42;;;;;;;;;;;19.10;96.10;;;;;;4420855;32;46064;-84
2021/07/17 11:42:24;;;;;;;;;;;19.20;96.20;;;;;;4421271;32;45010;-82
2021/07/17 11:45:05;;;;;;;;;;;19.20;96.10;;;;;;4420740;32;43892;-82
2021/07/17 11:47:49;;;;;;;;;;;19.20;96.10;;;;;;4420232;32;43477;-82
2021/07/17 11:50:27;;;;;;;;;;;19.30;96.10;;;;;;4421562;32;46044;-82
2021/07/17 11:53:06;;;;;;;;;;;19.30;96.10;;;;;;4422892;32;20382;-82
2021/07/17 11:55:44;;;;;;;;;;;19.30;96.10;;;;;;4420432;32;45049;-82
2021/07/17 11:58:25;;;;;;;;;;;19.30;96.10;;;;;;4420089;32;43454;-82
2021/07/17 12:01:07;;;;;;;;;;;19.40;96.20;;;;;;4420402;32;44544;-84
2021/07/17 12:03:34;;;;;;;;;;;19.40;96.20;;;;;;4420996;32;43496;-82
2021/07/17 12:06:10;;;;;;;;;;;19.40;96.20;;;;;;4421455;32;41497;-83
2021/07/17 12:08:49;;;;;;;;;;;19.40;96.20;;;;;;4420881;32;44153;-83
2021/07/17 12:11:27;;;;;;;;;;;19.40;96.10;;;;;;4420303;32;44692;-82
2021/07/17 12:14:16;;;;;;;;;;;19.50;96.20;;;;;;4420258;32;44838;-82
2021/07/17 12:16:58;;;;;;;;;;;19.50;96.10;;;;;;4421211;32;43884;-82
2021/07/17 12:19:37;;;;;;;;;;;19.50;96.10;;;;;;4419668;32;42670;-83
2021/07/17 12:22:15;;;;;;;;;;;19.50;96.10;;;;;;4420007;32;44343;-82
2021/07/17 12:25:05;;;;;;;;;;;19.60;96.10;;;;;;4421162;32;43120;-83
2021/07/17 12:27:52;;;;;;;;;;;19.60;96.10;;;;;;4420163;32;45687;-84
2021/07/17 12:30:20;;;;;;;;;;;19.70;96.10;;;;;;4419294;32;45961;-83
2021/07/17 12:33:31;;;;;;;;;;;19.70;96.10;;;;;;4420032;32;43361;-83
2021/07/17 12:36:07;;;;;;;;;;;19.70;96.10;;;;;;4361000;32;45251;-82
2021/07/17 12:38:45;;;;;;;;;;;19.70;96.10;;;;;;4411352;32;44270;-82
2021/07/17 12:41:27;;;;;;;;;;;19.80;96.10;;;;;;4419656;32;44158;-83
2021/07/17 12:44:06;;;;;;;;;;;19.80;96.10;;;;;;4419632;32;44238;-83
2021/07/17 12:46:44;;;;;;;;;;;19.80;96.10;;;;;;4420784;32;44379;-82
2021/07/17 12:49:26;;;;;;;;;;;19.90;96.10;;;;;;4419208;32;43458;-82
2021/07/17 12:52:07;;;;;;;;;;;19.90;96.10;;;;;;4419603;32;43473;-82
2021/07/17 12:54:45;;;;;;;;;;;19.90;96.10;;;;;;4420532;32;20045;-83
2021/07/17 12:57:15;;;;;;;;;;;20.00;96.10;;;;;;4419658;32;44080;-83
2021/07/17 12:59:53;;;;;;;;;;;20.00;96.10;;;;;;4419464;32;43185;-82
2021/07/17 13:02:33;;;;;;;;;;;20.00;96.10;;;;;;4420350;32;45606;-83
2021/07/17 13:05:12;;;;;;;;;;;20.10;96.10;;;;;;4419494;32;44105;-82
2021/07/17 13:07:51;;;;;;;;;;;20.10;96.10;;;;;;4420442;32;44256;-82
2021/07/17 13:10:36;;;;;;;;;;;20.10;96.00;;;;;;4420467;32;44143;-84
2021/07/17 13:13:17;;;;;;;;;;;20.20;96.10;;;;;;4418985;32;42817;-83
2021/07/17 13:15:56;;;;;;;;;;;20.20;96.10;;;;;;4420144;32;44293;-83
2021/07/17 13:18:37;;;;;;;;;;;20.20;96.10;;;;;;4419426;32;44099;-83
2021/07/17 13:21:16;;;;;;;;;;;20.30;96.10;;;;;;4420561;32;43303;-84
2021/07/17 13:23:55;;;;;;;;;;;20.30;96.10;;;;;;4419656;32;46118;-82
2021/07/17 13:26:34;;;;;;;;;;;20.30;96.00;;;;;;4420031;32;43509;-83
2021/07/17 13:29:22;;;;;;;;;;;20.30;96.00;;;;;;4420262;32;44057;-83
2021/07/17 13:32:06;;;;;;;;;;;20.40;96.00;;;;;;4419080;32;43110;-83
2021/07/17 13:34:48;;;;;;;;;;;20.40;96.00;;;;;;4419361;32;44057;-83
2021/07/17 13:37:26;;;;;;;;;;;20.50;96.00;;;;;;4418725;32;45053;-83
2021/07/17 13:40:06;;;;;;;;;;;20.40;96.00;;;;;;4420236;32;45149;-83
2021/07/17 13:42:44;;;;;;;;;;;20.50;96.00;;;;;;4421348;32;45068;-83
2021/07/17 13:45:23;;;;;;;;;;;20.50;96.00;;;;;;4422471;32;45639;-84
2021/07/17 13:47:59;;;;;;;;;;;20.60;96.00;;;;;;4422457;32;44488;-83
2021/07/17 13:50:42;;;;;;;;;;;20.60;96.00;;;;;;4422337;32;44765;-83
2021/07/17 13:53:16;;;;;;;;;;;20.60;96.00;;;;;;4422005;32;43345;-84
2021/07/17 13:55:47;;;;;;;;;;;20.70;96.00;;;;;;4422268;32;45416;-84
2021/07/17 13:58:25;;;;;;;;;;;20.70;96.00;;;;;;4422185;32;45157;-83
2021/07/17 14:01:04;;;;;;;;;;;20.70;96.00;;;;;;4422085;32;45286;-84
2021/07/17 14:03:46;;;;;;;;;;;20.80;96.00;;;;;;4421852;32;44183;-84
2021/07/17 14:06:28;;;;;;;;;;;20.80;96.00;;;;;;4422272;32;43964;-84
2021/07/17 14:09:03;;;;;;;;;;;20.80;96.00;;;;;;4422104;32;43470;-84
2021/07/17 14:11:42;;;;;;;;;;;20.80;96.00;;;;;;4422647;32;43051;-85
2021/07/17 14:14:20;;;;;;;;;;;20.90;96.00;;;;;;4422820;32;43355;-85
2021/07/17 14:17:00;;;;;;;;;;;20.90;96.00;;;;;;4422843;32;44315;-85
2021/07/17 14:19:38;;;;;;;;;;;20.90;96.00;;;;;;4421818;32;42485;-84
2021/07/17 14:22:16;;;;;;;;;;;21.00;96.00;;;;;;4421673;32;43910;-85
2021/07/17 14:24:49;;;;;;;;;;;21.00;95.90;;;;;;4422541;32;44078;-85
2021/07/17 14:27:25;;;;;;;;;;;21.00;95.90;;;;;;4422969;32;46052;-84
2021/07/17 14:30:03;;;;;;;;;;;21.10;95.90;;;;;;4422824;32;19996;-84
2021/07/17 14:32:57;;;;;;;;;;;21.10;95.90;;;;;;4421627;32;43784;-85
2021/07/17 14:35:35;;;;;;;;;;;21.10;95.90;;;;;;4422696;32;45686;-85
2021/07/17 14:38:14;;;;;;;;;;;21.10;95.90;;;;;;4421523;32;45575;-84
2021/07/17 14:40:52;;;;;;;;;;;21.20;95.90;;;;;;4421340;32;42783;-85
2021/07/17 14:43:30;;;;;;;;;;;21.20;95.90;;;;;;4421490;32;42937;-85
2021/07/17 14:46:06;;;;;;;;;;;21.20;95.80;;;;;;4421438;32;44603;-85
2021/07/17 14:48:47;;;;;;;;;;;21.20;95.80;;;;;;4421465;32;44626;-85
2021/07/17 14:51:26;;;;;;;;;;;21.30;95.90;;;;;;4422364;32;44152;-84
2021/07/17 14:54:13;;;;;;;;;;;21.30;95.80;;;;;;4421856;32;41975;-84
2021/07/17 14:56:51;;;;;;;;;;;21.30;95.80;;;;;;4422349;32;43827;-84
2021/07/17 14:59:30;;;;;;;;;;;21.40;95.80;;;;;;4422493;32;43943;-85
2021/07/17 15:02:01;;;;;;;;;;;21.40;95.80;;;;;;4422515;32;44934;-87
2021/07/17 15:04:35;;;;;;;;;;;21.40;96.10;;;;;;4420894;32;43807;-84
2021/07/17 15:07:16;;;;;;;;;;;21.50;95.80;;;;;;4421290;32;43362;-84
2021/07/17 15:09:54;;;;;;;;;;;21.50;95.80;;;;;;4421768;32;42922;-84
2021/07/17 15:12:29;;;;;;;;;;;21.50;95.70;;;;;;4421009;32;44733;-84
2021/07/17 15:15:02;;;;;;;;;;;21.50;95.70;;;;;;4421063;32;44133;-84
2021/07/17 15:17:40;;;;;;;;;;;21.50;95.70;;;;;;4422141;32;43182;-84
2021/07/17 15:20:16;;;;;;;;;;;21.50;95.70;;;;;;4421099;32;44645;-85
2021/07/17 15:22:51;;;;;;;;;;;21.60;95.70;;;;;;4421338;32;44109;-85